Terminal Aerodrome Forecast
Issued by NWS

Current Version | Previous Version | Text Only | Print | Product List | Glossary Off
Versions: 1 2 3 4 5 6 7 8 9 10 11 12 13 14 15 16 17 18 19 20 21 22

000
FTUS41 KILN 171500 AAC
TAFLCK
TAF AMD
KLCK 171500Z 1715/1812 33005KT P6SM FEW025 SCT150 BKN250
     FM172100 17008KT P6SM VCSH BKN050
     FM180200 15003KT P6SM OVC050=

USA.gov is the U.S. government's official web portal to all federal, state and local government web resources and services.